createdAt,value
2019-04-22T00:00:17.995Z,2.77
2019-04-22T00:02:52.560Z,3.30
2019-04-22T00:05:37.584Z,2.57
2019-04-22T00:08:16.739Z,2.90
2019-04-22T00:10:47.143Z,3.00
2019-04-22T00:13:26.003Z,2.97
2019-04-22T00:15:41.802Z,2.80
2019-04-22T00:18:28.260Z,2.90
2019-04-22T00:20:58.285Z,2.60
2019-04-22T00:23:24.513Z,3.40
2019-04-22T00:26:03.970Z,2.70
2019-04-22T00:28:30.321Z,2.60
2019-04-22T00:31:11.523Z,2.90
2019-04-22T00:33:39.359Z,2.90
2019-04-22T00:36:08.778Z,2.67
2019-04-22T00:38:44.412Z,3.37
2019-04-22T00:41:26.271Z,2.83
2019-04-22T00:43:53.003Z,2.60
2019-04-22T00:46:18.142Z,2.83
2019-04-22T00:49:30.259Z,2.50
2019-04-22T00:51:44.934Z,2.50
2019-04-22T00:53:57.529Z,2.90
2019-04-22T00:56:22.059Z,2.80
2019-04-22T00:58:56.595Z,2.97
2019-04-22T01:01:31.841Z,2.80
2019-04-22T01:04:14.323Z,2.80
2019-04-22T01:06:31.690Z,2.60
2019-04-22T01:09:13.672Z,2.30
2019-04-22T01:11:32.295Z,2.73
2019-04-22T01:14:06.534Z,2.50
2019-04-22T01:16:42.912Z,2.60
2019-04-22T01:19:16.683Z,2.80
2019-04-22T01:24:17.094Z,2.57
2019-04-22T01:26:43.380Z,3.00
2019-04-22T01:29:10.960Z,3.10
2019-04-22T01:31:36.527Z,2.53
2019-04-22T01:34:22.248Z,2.80
2019-04-22T01:36:57.724Z,2.67
2019-04-22T01:39:40.312Z,2.90
2019-04-22T01:42:06.120Z,2.70
2019-04-22T01:44:42.191Z,3.00
2019-04-22T01:47:13.384Z,3.10
2019-04-22T01:49:41.771Z,3.37
2019-04-22T01:52:15.984Z,2.97
2019-04-22T01:54:48.547Z,3.30
2019-04-22T01:57:17.430Z,2.50
2019-04-22T01:59:40.472Z,3.10
2019-04-22T02:02:25.541Z,2.87
2019-04-22T02:07:29.291Z,3.30
2019-04-22T02:09:55.181Z,3.10
2019-04-22T02:12:35.392Z,2.83
2019-04-22T02:14:57.256Z,3.00
2019-04-22T02:17:37.224Z,3.47
2019-04-22T02:20:05.083Z,3.40
2019-04-22T02:23:18.985Z,2.93
2019-04-22T02:25:41.387Z,3.27
2019-04-22T02:28:22.198Z,3.40
2019-04-22T02:30:49.797Z,3.20
2019-04-22T02:33:40.629Z,3.53
2019-04-22T02:36:16.672Z,3.23
2019-04-22T02:38:34.852Z,3.23
2019-04-22T02:41:15.977Z,3.33
2019-04-22T02:43:35.664Z,3.20
2019-04-22T02:46:13.508Z,3.60
2019-04-22T02:48:45.923Z,3.37
2019-04-22T02:51:10.429Z,3.77
2019-04-22T02:56:23.051Z,3.60
2019-04-22T02:58:52.293Z,3.80
2019-04-22T03:01:18.264Z,3.13
2019-04-22T03:03:51.899Z,3.53
2019-04-22T03:06:30.437Z,3.63
2019-04-22T03:08:50.536Z,3.97
2019-04-22T03:11:19.121Z,3.40
2019-04-22T03:18:55.030Z,3.57
2019-04-22T03:21:18.822Z,3.80
2019-04-22T03:26:31.891Z,3.90
2019-04-22T03:37:21.107Z,4.03
2019-04-22T03:59:56.707Z,4.53
2019-04-22T04:02:21.422Z,4.80
2019-04-22T04:04:43.149Z,4.97
2019-04-22T04:07:33.605Z,4.43
2019-04-22T04:10:00.387Z,4.83
2019-04-22T04:17:29.333Z,5.30
2019-04-22T04:22:50.328Z,4.93
2019-04-22T04:25:27.550Z,5.43
2019-04-22T04:27:53.581Z,5.40
2019-04-22T04:32:52.446Z,4.97
2019-04-22T04:37:45.053Z,4.90
2019-04-22T04:40:28.798Z,4.77
2019-04-22T04:42:46.006Z,5.07
2019-04-22T04:50:18.408Z,4.87
2019-04-22T04:53:02.579Z,4.50
2019-04-22T04:55:22.159Z,4.60
2019-04-22T04:58:04.396Z,5.67
2019-04-22T05:05:29.317Z,5.27
2019-04-22T05:10:48.002Z,5.77
2019-04-22T05:13:12.469Z,5.33
2019-04-22T05:18:07.236Z,4.87
2019-04-22T05:21:50.167Z,4.87
2019-04-22T05:23:07.026Z,4.30
2019-04-22T05:25:33.812Z,5.43
2019-04-22T05:28:12.987Z,5.10
2019-04-22T05:33:14.274Z,5.40
2019-04-22T05:35:47.176Z,5.43
2019-04-22T05:38:21.228Z,5.40
2019-04-22T05:40:42.090Z,5.10
2019-04-22T05:43:22.731Z,4.93
2019-04-22T05:45:54.545Z,4.80
2019-04-22T05:48:27.367Z,5.70
2019-04-22T05:50:59.300Z,5.43
2019-04-22T05:53:31.264Z,4.97
2019-04-22T05:55:56.918Z,5.57
2019-04-22T05:58:29.379Z,5.00
2019-04-22T06:03:49.338Z,5.97
2019-04-22T06:06:16.739Z,5.60
2019-04-22T06:08:46.940Z,6.20
2019-04-22T06:11:24.432Z,6.03
2019-04-22T06:13:46.856Z,5.53
2019-04-22T06:16:30.823Z,6.10
2019-04-22T06:19:03.096Z,5.57
2019-04-22T06:24:13.931Z,4.83
2019-04-22T06:26:45.792Z,6.10
2019-04-22T06:29:22.178Z,5.37
2019-04-22T06:32:06.953Z,5.27
2019-04-22T06:34:17.657Z,5.73
2019-04-22T06:36:55.368Z,5.00
2019-04-22T06:39:32.497Z,5.13
2019-04-22T06:41:53.712Z,6.30
2019-04-22T06:44:24.120Z,5.63
2019-04-22T06:46:52.418Z,5.20
2019-04-22T06:49:33.273Z,4.70
2019-04-22T06:52:01.173Z,5.37
2019-04-22T06:54:27.900Z,5.17
2019-04-22T06:56:59.621Z,5.27
2019-04-22T06:59:32.761Z,5.03
2019-04-22T07:04:33.649Z,5.20
2019-04-22T07:07:06.702Z,4.70
2019-04-22T07:09:41.143Z,4.30
2019-04-22T07:12:11.523Z,4.47
2019-04-22T07:14:47.269Z,4.37
2019-04-22T07:17:15.233Z,4.30
2019-04-22T07:19:43.767Z,4.67
2019-04-22T07:22:16.282Z,4.83
2019-04-22T07:27:25.676Z,4.40
2019-04-22T07:29:55.364Z,3.93
2019-04-22T07:32:47.764Z,4.70
2019-04-22T07:35:04.133Z,4.33
2019-04-22T07:37:37.148Z,4.60
2019-04-22T07:39:58.330Z,4.33
2019-04-22T07:42:34.389Z,4.83
2019-04-22T07:45:03.889Z,4.40
2019-04-22T07:50:05.839Z,4.23
2019-04-22T07:52:51.397Z,4.60
2019-04-22T07:55:06.326Z,4.87
2019-04-22T07:57:36.598Z,4.90
2019-04-22T08:00:19.063Z,4.60
2019-04-22T08:05:20.670Z,4.60
2019-04-22T08:07:54.164Z,4.20
2019-04-22T08:10:40.431Z,5.37
2019-04-22T08:12:53.391Z,5.00
2019-04-22T08:15:19.552Z,4.60
2019-04-22T08:18:09.905Z,4.47
2019-04-22T08:20:28.972Z,4.43
2019-04-22T08:23:04.816Z,4.33
2019-04-22T08:25:36.631Z,4.30
2019-04-22T08:28:03.050Z,4.77
2019-04-22T08:30:41.402Z,4.53
2019-04-22T08:33:10.893Z,5.30
2019-04-22T08:38:14.827Z,4.70
2019-04-22T08:41:06.867Z,3.67
2019-04-22T08:43:33.036Z,3.80
2019-04-22T08:45:58.499Z,3.67
2019-04-22T08:48:29.669Z,3.67
2019-04-22T08:51:00.592Z,2.83
2019-04-22T08:53:35.899Z,3.37
2019-04-22T08:56:19.777Z,2.60
2019-04-22T08:58:31.226Z,2.87
2019-04-22T09:01:04.548Z,2.80
2019-04-22T09:03:37.988Z,2.40
2019-04-22T09:06:11.337Z,2.37
2019-04-22T09:08:41.793Z,2.60
2019-04-22T09:11:16.472Z,2.57
2019-04-22T09:13:45.338Z,2.43
2019-04-22T09:16:20.767Z,2.70
2019-04-22T09:18:48.759Z,2.33
2019-04-22T09:26:23.962Z,2.53
2019-04-22T09:28:59.906Z,2.60
2019-04-22T09:31:23.908Z,2.40
2019-04-22T09:33:53.197Z,3.27
2019-04-22T09:39:00.873Z,2.23
2019-04-22T09:41:36.769Z,2.07
2019-04-22T09:44:02.378Z,2.40
2019-04-22T09:49:12.145Z,2.67
2019-04-22T09:51:37.502Z,2.50
2019-04-22T09:54:14.960Z,2.50
2019-04-22T09:56:43.960Z,2.43
2019-04-22T09:59:13.955Z,2.63
2019-04-22T10:02:02.344Z,2.97
2019-04-22T10:04:10.339Z,2.57
2019-04-22T10:07:13.755Z,2.50
2019-04-22T10:11:50.823Z,2.43
2019-04-22T10:14:28.951Z,2.70
2019-04-22T10:16:53.968Z,2.80
2019-04-22T10:19:29.941Z,2.37
2019-04-22T10:21:57.288Z,2.17
2019-04-22T10:24:33.029Z,2.00
2019-04-22T10:27:02.053Z,2.50
2019-04-22T10:29:43.570Z,2.10
2019-04-22T10:32:07.029Z,2.10
2019-04-22T10:34:26.922Z,2.00
2019-04-22T10:36:54.376Z,2.10
2019-04-22T10:39:20.446Z,2.20
2019-04-22T10:41:52.753Z,2.17
2019-04-22T10:44:23.629Z,1.70
2019-04-22T10:46:53.909Z,2.00
2019-04-22T10:49:24.570Z,2.07
2019-04-22T10:51:55.005Z,1.80
2019-04-22T10:54:25.437Z,1.90
2019-04-22T10:56:56.885Z,1.80
2019-04-22T10:59:27.014Z,2.23
2019-04-22T11:01:56.917Z,1.97
2019-04-22T11:04:28.062Z,2.20
2019-04-22T11:07:03.356Z,2.17
2019-04-22T11:09:30.971Z,2.60
2019-04-22T11:12:06.431Z,1.97
2019-04-22T11:14:32.941Z,2.30
2019-04-22T11:17:05.307Z,2.20
2019-04-22T11:19:35.325Z,2.40
2019-04-22T11:22:12.814Z,2.63
2019-04-22T11:24:37.220Z,1.97
2019-04-22T11:27:08.338Z,2.50
2019-04-22T11:29:39.374Z,2.13
2019-04-22T11:32:12.883Z,2.20
2019-04-22T11:34:42.960Z,2.20
2019-04-22T11:37:14.531Z,2.40
2019-04-22T11:39:44.930Z,2.40
2019-04-22T11:42:16.317Z,2.30
2019-04-22T11:44:47.534Z,2.40
2019-04-22T11:47:17.660Z,2.17
2019-04-22T11:49:47.958Z,3.00
2019-04-22T11:52:19.085Z,2.80
2019-04-22T11:54:50.675Z,3.27
2019-04-22T11:57:21.149Z,2.80
2019-04-22T11:59:51.190Z,3.33
2019-04-22T12:02:23.394Z,3.00
2019-04-22T12:04:56.008Z,3.20
2019-04-22T12:07:26.731Z,3.00
2019-04-22T12:09:59.592Z,3.20
2019-04-22T12:12:29.995Z,3.10
2019-04-22T12:15:00.793Z,3.10
2019-04-22T12:17:32.046Z,3.50
2019-04-22T12:20:04.776Z,3.30
2019-04-22T12:22:34.282Z,3.07
2019-04-22T12:25:08.149Z,3.23
2019-04-22T12:27:41.055Z,3.27
2019-04-22T12:30:12.381Z,3.07
2019-04-22T12:32:43.557Z,3.33
2019-04-22T12:35:15.663Z,2.97
2019-04-22T12:37:52.937Z,3.20
2019-04-22T12:40:31.560Z,2.90
2019-04-22T12:42:51.122Z,2.60
2019-04-22T12:45:22.534Z,2.70
2019-04-22T12:47:53.921Z,2.87
2019-04-22T12:50:29.865Z,2.70
2019-04-22T12:53:03.221Z,3.03
2019-04-22T12:55:30.286Z,2.60
2019-04-22T12:58:02.433Z,2.60
2019-04-22T13:00:32.416Z,2.90
2019-04-22T13:03:03.123Z,2.70
2019-04-22T13:05:33.444Z,2.60
2019-04-22T13:08:03.583Z,2.63
2019-04-22T13:10:47.330Z,2.73
2019-04-22T13:13:06.981Z,2.73
2019-04-22T13:15:37.380Z,2.60
2019-04-22T13:18:17.543Z,2.87
2019-04-22T13:20:39.160Z,2.47
2019-04-22T13:23:09.577Z,2.77
2019-04-22T13:25:40.900Z,2.60
2019-04-22T13:28:11.363Z,2.47
2019-04-22T13:30:41.859Z,2.97
2019-04-22T13:33:12.622Z,2.80
2019-04-22T13:35:43.819Z,2.70
2019-04-22T13:38:15.198Z,3.10
2019-04-22T13:41:01.507Z,2.93
2019-04-22T13:43:18.658Z,2.93
2019-04-22T13:45:49.850Z,2.87
2019-04-22T13:48:40.030Z,3.50
2019-04-22T13:51:21.009Z,2.60
2019-04-22T13:54:14.196Z,3.20
2019-04-22T13:56:15.430Z,3.30
2019-04-22T13:58:43.200Z,2.97
2019-04-22T14:01:02.639Z,2.80
2019-04-22T14:03:52.227Z,3.27
2019-04-22T14:06:22.685Z,3.10
2019-04-22T14:08:53.440Z,3.30
2019-04-22T14:11:34.478Z,3.50
2019-04-22T14:13:56.619Z,3.70
2019-04-22T14:16:27.037Z,3.70
2019-04-22T14:18:58.119Z,3.20
2019-04-22T14:21:28.312Z,3.00
2019-04-22T14:23:58.585Z,3.23
2019-04-22T14:26:46.856Z,4.30
2019-04-22T14:29:01.775Z,2.57
2019-04-22T14:31:32.838Z,2.50
2019-04-22T14:36:35.256Z,2.50
2019-04-22T14:39:10.280Z,2.67
2019-04-22T14:41:55.396Z,2.93
2019-04-22T14:44:42.162Z,2.30
2019-04-22T14:47:15.775Z,2.60
2019-04-22T14:49:40.204Z,2.70
2019-04-22T14:52:13.152Z,2.73
2019-04-22T14:54:34.999Z,2.37
2019-04-22T14:56:51.782Z,3.07
2019-04-22T14:59:22.893Z,2.83
2019-04-22T15:01:54.103Z,2.23
2019-04-22T15:04:24.558Z,2.60
2019-04-22T15:06:54.812Z,3.23
2019-04-22T15:09:26.086Z,3.30
2019-04-22T15:12:08.728Z,2.60
2019-04-22T15:14:28.101Z,3.07
2019-04-22T15:17:20.820Z,3.30
2019-04-22T15:20:08.176Z,2.97
2019-04-22T15:22:38.848Z,3.03
2019-04-22T15:25:10.333Z,2.70
2019-04-22T15:27:41.584Z,2.50
2019-04-22T15:30:12.748Z,2.70
2019-04-22T15:32:43.188Z,3.00
2019-04-22T15:35:15.409Z,3.13
2019-04-22T15:37:45.617Z,2.80
2019-04-22T15:40:16.562Z,2.80
2019-04-22T15:42:47.079Z,2.77
2019-04-22T15:45:18.781Z,2.80
2019-04-22T15:47:50.113Z,3.33
2019-04-22T15:50:20.429Z,2.67
2019-04-22T15:52:53.811Z,3.27
2019-04-22T15:55:22.859Z,2.90
2019-04-22T15:57:53.985Z,3.47
2019-04-22T16:00:36.791Z,3.70
2019-04-22T16:02:57.591Z,3.03
2019-04-22T16:05:28.122Z,2.87
2019-04-22T16:07:59.160Z,3.10
2019-04-22T16:10:30.409Z,2.80
2019-04-22T16:13:09.374Z,3.10
2019-04-22T16:15:32.427Z,2.80
2019-04-22T16:18:04.752Z,2.87
2019-04-22T16:20:34.331Z,2.77
2019-04-22T16:23:38.681Z,3.20
2019-04-22T16:26:22.076Z,2.90
2019-04-22T16:28:55.786Z,3.53
2019-04-22T16:31:25.077Z,3.90
2019-04-22T16:33:56.305Z,3.73
2019-04-22T16:36:26.916Z,3.57
2019-04-22T16:38:57.048Z,3.63
2019-04-22T16:41:28.582Z,3.93
2019-04-22T16:43:58.788Z,4.37
2019-04-22T16:46:29.756Z,4.50
2019-04-22T16:49:01.330Z,3.93
2019-04-22T16:51:32.043Z,4.30
2019-04-22T16:54:02.219Z,4.37
2019-04-22T16:56:35.089Z,4.40
2019-04-22T16:59:04.524Z,5.13
2019-04-22T17:02:01.087Z,4.50
2019-04-22T17:04:46.738Z,4.13
2019-04-22T17:07:18.053Z,4.20
2019-04-22T17:09:48.167Z,4.10
2019-04-22T17:12:19.561Z,4.43
2019-04-22T17:14:56.135Z,5.00
2019-04-22T17:17:22.314Z,5.20
2019-04-22T17:19:53.288Z,5.00
2019-04-22T17:22:23.900Z,6.03
2019-04-22T17:24:54.103Z,5.10
2019-04-22T17:27:24.480Z,6.10
2019-04-22T17:29:54.753Z,5.87
2019-04-22T17:32:26.964Z,6.23
2019-04-22T17:34:57.420Z,5.87
2019-04-22T17:37:31.629Z,7.17
2019-04-22T17:40:17.955Z,6.93
2019-04-22T17:42:53.312Z,6.53
2019-04-22T17:45:40.205Z,6.47
2019-04-22T17:48:22.293Z,6.60
2019-04-22T17:50:59.703Z,6.37
2019-04-22T17:53:33.441Z,6.60
2019-04-22T17:56:05.069Z,6.97
2019-04-22T17:58:40.387Z,6.70
2019-04-22T18:01:11.893Z,7.00
2019-04-22T18:03:28.044Z,6.70
2019-04-22T18:05:56.180Z,6.80
2019-04-22T18:08:40.746Z,6.50
2019-04-22T18:11:17.070Z,6.53
2019-04-22T18:13:44.568Z,6.20
2019-04-22T18:16:19.669Z,6.80
2019-04-22T18:18:47.689Z,6.60
2019-04-22T18:21:16.121Z,6.50
2019-04-22T18:23:42.179Z,6.50
2019-04-22T18:26:22.792Z,7.10
2019-04-22T18:28:55.893Z,6.80
2019-04-22T18:31:17.527Z,6.43
2019-04-22T18:33:59.476Z,6.70
2019-04-22T18:36:22.715Z,6.40
2019-04-22T18:39:07.176Z,6.83
2019-04-22T18:41:36.588Z,6.73
2019-04-22T18:44:07.984Z,7.20
2019-04-22T18:46:37.089Z,7.03
2019-04-22T18:49:08.302Z,7.47
2019-04-22T18:51:46.690Z,7.63
2019-04-22T18:54:36.679Z,7.00
2019-04-22T18:57:07.962Z,6.70
2019-04-22T18:59:26.261Z,7.17
2019-04-22T19:01:53.633Z,6.97
2019-04-22T19:04:31.607Z,7.60
2019-04-22T19:07:17.295Z,7.23
2019-04-22T19:09:56.285Z,6.63
2019-04-22T19:20:03.061Z,6.97
2019-04-22T19:22:33.694Z,6.30
2019-04-22T19:24:54.735Z,5.60
2019-04-22T19:27:25.190Z,6.27
2019-04-22T19:30:04.253Z,6.30
2019-04-22T19:32:32.334Z,6.13
2019-04-22T19:34:57.157Z,5.93
2019-04-22T19:37:33.202Z,5.83
2019-04-22T19:42:50.523Z,6.47
2019-04-22T19:45:13.284Z,5.67
2019-04-22T19:47:41.992Z,5.80
2019-04-22T19:50:16.600Z,5.67
2019-04-22T19:52:43.389Z,6.00
2019-04-22T19:55:21.387Z,5.33
2019-04-22T19:57:52.582Z,5.83
2019-04-22T20:00:23.942Z,6.07
2019-04-22T20:03:16.531Z,5.90
2019-04-22T20:05:50.873Z,5.57
2019-04-22T20:08:23.239Z,5.47
2019-04-22T20:10:46.093Z,5.67
2019-04-22T20:13:28.762Z,5.87
2019-04-22T20:15:43.798Z,5.70
2019-04-22T20:20:59.651Z,5.83
2019-04-22T20:23:22.905Z,5.57
2019-04-22T20:25:51.192Z,5.10
2019-04-22T20:28:35.331Z,6.97
2019-04-22T20:31:03.537Z,6.00
2019-04-22T20:33:35.354Z,5.07
2019-04-22T20:36:14.286Z,6.10
2019-04-22T20:38:38.862Z,5.33
2019-04-22T20:41:05.745Z,5.60
2019-04-22T20:43:46.928Z,5.57
2019-04-22T20:46:19.063Z,5.80
2019-04-22T20:48:53.143Z,5.73
2019-04-22T20:51:17.196Z,5.70
2019-04-22T20:53:52.181Z,5.80
2019-04-22T20:56:17.508Z,5.50
2019-04-22T20:58:52.168Z,5.47
2019-04-22T21:01:22.779Z,5.77
2019-04-22T21:03:44.010Z,5.47
2019-04-22T21:06:22.769Z,5.93
2019-04-22T21:09:01.025Z,5.90
2019-04-22T21:11:30.293Z,5.80
2019-04-22T21:14:01.469Z,5.90
2019-04-22T21:16:32.883Z,6.03
2019-04-22T21:18:58.726Z,5.80
2019-04-22T21:21:38.706Z,5.97
2019-04-22T21:23:59.698Z,6.23
2019-04-22T21:26:36.521Z,5.90
2019-04-22T21:29:07.160Z,6.50
2019-04-22T21:31:46.477Z,6.10
2019-04-22T21:34:13.028Z,6.60
2019-04-22T21:36:48.172Z,6.30
2019-04-22T21:39:12.498Z,7.20
2019-04-22T21:41:48.620Z,6.23
2019-04-22T21:44:21.279Z,6.17
2019-04-22T21:46:59.738Z,6.40
2019-04-22T21:49:27.998Z,6.43
2019-04-22T21:52:13.626Z,6.13
2019-04-22T21:54:30.242Z,6.13
2019-04-22T21:57:13.793Z,6.23
2019-04-22T21:59:34.624Z,6.40
2019-04-22T22:02:17.512Z,6.70
2019-04-22T22:04:44.610Z,6.87
2019-04-22T22:07:05.335Z,6.33
2019-04-22T22:09:47.131Z,6.03
2019-04-22T22:12:18.127Z,6.33
2019-04-22T22:14:55.894Z,6.23
2019-04-22T22:17:22.344Z,6.30
2019-04-22T22:19:55.612Z,6.17
2019-04-22T22:22:42.205Z,6.50
2019-04-22T22:25:04.296Z,6.23
2019-04-22T22:27:34.249Z,7.10
2019-04-22T22:30:19.206Z,6.23
2019-04-22T22:32:33.714Z,6.43
2019-04-22T22:35:12.032Z,6.57
2019-04-22T22:37:28.198Z,7.00
2019-04-22T22:39:57.998Z,6.97
2019-04-22T22:42:30.249Z,6.60
2019-04-22T22:45:06.555Z,6.80
2019-04-22T22:47:47.226Z,7.27
2019-04-22T22:50:17.258Z,6.10
2019-04-22T22:52:58.978Z,6.20
2019-04-22T22:55:22.297Z,6.50
2019-04-22T22:58:01.345Z,7.60
2019-04-22T23:00:28.748Z,7.43
2019-04-22T23:03:16.845Z,7.47
2019-04-22T23:05:35.537Z,7.20
2019-04-22T23:08:00.778Z,7.50
2019-04-22T23:10:44.318Z,7.00
2019-04-22T23:13:20.007Z,7.60
2019-04-22T23:15:37.533Z,7.00
2019-04-22T23:17:50.014Z,7.03
2019-04-22T23:20:27.520Z,7.97
2019-04-22T23:23:14.340Z,7.50
2019-04-22T23:25:50.010Z,7.83
2019-04-22T23:28:31.152Z,7.13
2019-04-22T23:31:14.099Z,6.97
2019-04-22T23:33:55.976Z,7.33
2019-04-22T23:36:36.895Z,7.60
2019-04-22T23:39:27.429Z,8.23
2019-04-22T23:42:00.673Z,7.67
2019-04-22T23:44:27.531Z,7.60
2019-04-22T23:46:55.955Z,8.10
2019-04-22T23:49:28.209Z,8.30
2019-04-22T23:52:08.883Z,8.97
2019-04-22T23:54:44.929Z,7.57
2019-04-22T23:57:08.478Z,7.93
